createdAt,value
2022-11-10T00:03:28.206Z,10.30
2022-11-10T00:08:30.179Z,10.30
2022-11-10T00:13:35.329Z,10.30
2022-11-10T00:18:37.536Z,10.30
2022-11-10T00:23:39.641Z,10.20
2022-11-10T00:28:41.826Z,10.20
2022-11-10T00:33:44.691Z,10.10
2022-11-10T00:38:46.455Z,10.20
2022-11-10T00:43:48.772Z,10.10
2022-11-10T00:48:50.689Z,10.20
2022-11-10T00:53:53.126Z,10.10
2022-11-10T00:58:54.840Z,10.20
2022-11-10T01:03:56.664Z,10.20
2022-11-10T01:08:58.454Z,10.10
2022-11-10T01:14:00.266Z,10.20
2022-11-10T01:19:03.428Z,10.10
2022-11-10T01:24:05.445Z,10.20
2022-11-10T01:29:07.714Z,10.10
2022-11-10T01:34:09.506Z,10.10
2022-11-10T01:39:11.238Z,10.10
2022-11-10T01:44:20.216Z,10.20
2022-11-10T01:49:25.998Z,10.20
2022-11-10T01:54:32.272Z,10.20
2022-11-10T01:59:40.918Z,10.20
2022-11-10T02:04:43.353Z,10.10
2022-11-10T02:09:45.120Z,10.00
2022-11-10T02:14:47.004Z,10.10
2022-11-10T02:19:48.709Z,10.10
2022-11-10T02:24:50.454Z,10.10
2022-11-10T02:29:52.737Z,10.20
2022-11-10T02:34:54.828Z,10.20
2022-11-10T02:39:56.550Z,10.10
2022-11-10T02:44:58.939Z,10.10
2022-11-10T02:50:00.737Z,10.10
2022-11-10T02:55:02.453Z,10.00
2022-11-10T03:00:06.495Z,9.90
2022-11-10T03:05:08.390Z,10.00
2022-11-10T03:10:10.279Z,9.90
2022-11-10T03:15:12.927Z,9.90
2022-11-10T03:20:15.199Z,9.90
2022-11-10T03:25:17.015Z,9.80
2022-11-10T03:30:18.847Z,9.90
2022-11-10T03:35:21.346Z,9.80
2022-11-10T03:40:23.213Z,9.80
2022-11-10T03:45:24.991Z,9.70
2022-11-10T03:50:26.725Z,9.70
2022-11-10T03:55:28.436Z,9.70
2022-11-10T04:00:30.209Z,9.60
2022-11-10T04:05:50.458Z,9.60
2022-11-10T04:10:52.207Z,9.60
2022-11-10T04:15:54.082Z,9.50
2022-11-10T04:21:00.885Z,9.50
2022-11-10T04:26:26.704Z,9.50
2022-11-10T04:31:32.333Z,9.60
2022-11-10T04:36:35.558Z,9.40
2022-11-10T04:41:37.376Z,9.40
2022-11-10T04:46:40.365Z,9.40
2022-11-10T04:51:42.219Z,9.40
2022-11-10T04:56:44.070Z,9.30
2022-11-10T05:01:45.793Z,9.40
2022-11-10T05:06:47.558Z,9.30
2022-11-10T05:11:49.316Z,9.30
2022-11-10T05:16:51.171Z,9.30
2022-11-10T05:21:52.891Z,9.30
2022-11-10T05:26:54.619Z,9.30
2022-11-10T05:31:56.334Z,9.20
2022-11-10T05:36:58.024Z,9.20
2022-11-10T05:41:59.823Z,9.30
2022-11-10T05:47:01.589Z,9.20
2022-11-10T05:52:03.529Z,9.40
2022-11-10T05:57:05.730Z,9.20
2022-11-10T06:02:07.606Z,9.30
2022-11-10T06:07:09.374Z,9.30
2022-11-10T06:12:11.137Z,9.30
2022-11-10T06:17:13.172Z,9.30
2022-11-10T06:22:15.019Z,9.20
2022-11-10T06:27:16.731Z,9.20
2022-11-10T06:32:18.553Z,9.20
2022-11-10T06:37:20.316Z,9.20
2022-11-10T06:42:22.192Z,9.20
2022-11-10T06:47:24.006Z,9.30
2022-11-10T06:52:25.736Z,9.20
2022-11-10T06:57:27.551Z,9.30
2022-11-10T07:02:29.287Z,9.30
2022-11-10T07:07:31.014Z,9.30
2022-11-10T07:12:32.870Z,9.10
2022-11-10T07:17:42.110Z,9.20
2022-11-10T07:22:43.954Z,9.30
2022-11-10T07:27:45.684Z,9.30
2022-11-10T07:32:47.625Z,9.30
2022-11-10T07:37:49.369Z,9.30
2022-11-10T07:42:51.221Z,9.30
2022-11-10T07:47:57.991Z,9.40
2022-11-10T07:53:07.956Z,9.50
2022-11-10T07:58:10.920Z,9.60
2022-11-10T08:03:15.345Z,9.60
2022-11-10T08:08:17.468Z,9.80
2022-11-10T08:13:19.919Z,9.80
2022-11-10T08:18:23.640Z,9.90
2022-11-10T08:23:25.631Z,10.00
2022-11-10T08:28:28.210Z,10.20
2022-11-10T08:33:29.910Z,10.30
2022-11-10T08:38:31.706Z,10.40
2022-11-10T08:43:33.399Z,10.60
2022-11-10T08:48:35.151Z,10.70
2022-11-10T08:53:37.001Z,10.80
2022-11-10T08:58:48.598Z,10.90
2022-11-10T09:03:54.815Z,11.00
2022-11-10T09:08:56.542Z,11.10
2022-11-10T09:13:58.404Z,11.30
2022-11-10T09:19:00.089Z,11.40
2022-11-10T09:24:01.906Z,11.50
2022-11-10T09:29:03.637Z,11.60
2022-11-10T09:34:05.502Z,11.70
2022-11-10T09:39:07.903Z,11.80
2022-11-10T09:44:22.695Z,12.00
2022-11-10T09:49:37.403Z,12.10
2022-11-10T09:54:49.017Z,12.40
2022-11-10T09:59:51.300Z,12.40
2022-11-10T10:05:15.883Z,12.50
2022-11-10T10:10:25.213Z,12.70
2022-11-10T10:15:57.726Z,12.80
2022-11-10T10:21:37.198Z,12.90
2022-11-10T10:26:41.945Z,13.00
2022-11-10T10:31:48.096Z,13.10
2022-11-10T10:36:49.864Z,13.20
2022-11-10T10:41:51.590Z,13.30
2022-11-10T10:46:59.086Z,13.40
2022-11-10T10:52:10.295Z,13.60
2022-11-10T10:57:29.117Z,13.70
2022-11-10T11:02:32.239Z,13.90
2022-11-10T11:07:34.138Z,14.20
2022-11-10T11:12:35.984Z,14.20
2022-11-10T11:17:38.018Z,14.30
2022-11-10T11:22:56.687Z,14.30
2022-11-10T11:28:07.366Z,14.20
2022-11-10T11:33:17.994Z,14.20
2022-11-10T11:38:25.093Z,14.40
2022-11-10T11:44:05.303Z,14.60
2022-11-10T11:49:28.860Z,14.50
2022-11-10T11:54:45.605Z,14.40
2022-11-10T12:00:01.076Z,14.50
2022-11-10T12:05:17.849Z,14.70
2022-11-10T12:10:31.997Z,14.70
2022-11-10T12:15:38.787Z,14.70
2022-11-10T12:20:55.272Z,14.90
2022-11-10T12:26:41.246Z,14.90
2022-11-10T12:31:45.692Z,15.10
2022-11-10T12:36:48.614Z,15.20
2022-11-10T12:41:56.270Z,15.30
2022-11-10T12:47:01.137Z,15.20
2022-11-10T12:52:18.239Z,15.20
2022-11-10T12:57:24.958Z,15.40
2022-11-10T13:02:43.643Z,15.70
2022-11-10T13:07:49.307Z,15.90
2022-11-10T13:13:12.910Z,15.60
2022-11-10T13:18:32.589Z,15.60
2022-11-10T13:23:57.625Z,15.40
2022-11-10T13:29:02.681Z,15.40
2022-11-10T13:34:11.891Z,15.70
2022-11-10T13:39:29.889Z,15.90
2022-11-10T13:44:37.433Z,15.90
2022-11-10T13:50:00.025Z,15.80
2022-11-10T13:55:36.849Z,15.80
2022-11-10T14:00:38.725Z,16.00
2022-11-10T14:06:00.306Z,16.00
2022-11-10T14:11:13.696Z,16.30
2022-11-10T14:16:27.228Z,16.50
2022-11-10T14:21:36.194Z,16.40
2022-11-10T14:26:42.873Z,16.20
2022-11-10T14:31:44.748Z,15.90
2022-11-10T14:36:57.957Z,16.00
2022-11-10T14:42:05.269Z,16.10
2022-11-10T14:47:31.305Z,16.70
2022-11-10T14:52:37.467Z,17.70
2022-11-10T14:57:40.457Z,17.40
2022-11-10T15:02:42.374Z,16.60
2022-11-10T15:07:45.829Z,16.20
2022-11-10T15:13:04.594Z,15.50
2022-11-10T15:18:07.498Z,15.00
2022-11-10T15:23:33.453Z,14.70
2022-11-10T15:28:36.800Z,14.60
2022-11-10T15:33:45.500Z,14.40
2022-11-10T15:39:05.301Z,14.30
2022-11-10T15:44:21.242Z,14.20
2022-11-10T15:49:37.325Z,14.20
2022-11-10T15:54:39.105Z,14.10
2022-11-10T15:59:41.680Z,13.90
2022-11-10T16:04:43.444Z,13.80
2022-11-10T16:09:45.431Z,13.60
2022-11-10T16:14:51.107Z,13.60
2022-11-10T16:19:52.871Z,13.50
2022-11-10T16:24:54.625Z,13.30
2022-11-10T16:29:56.415Z,13.30
2022-11-10T16:34:58.319Z,13.20
2022-11-10T16:40:00.138Z,13.00
2022-11-10T16:45:02.042Z,12.90
2022-11-10T16:50:03.973Z,12.90
2022-11-10T16:55:06.100Z,12.90
2022-11-10T17:00:08.971Z,12.80
2022-11-10T17:05:14.466Z,12.80
2022-11-10T17:10:18.440Z,12.60
2022-11-10T17:15:20.241Z,12.60
2022-11-10T17:20:26.062Z,12.50
2022-11-10T17:25:31.095Z,12.40
2022-11-10T17:30:32.884Z,12.30
2022-11-10T17:35:45.760Z,12.20
2022-11-10T17:40:47.546Z,12.10
2022-11-10T17:45:49.378Z,12.00
2022-11-10T17:50:51.282Z,12.00
2022-11-10T17:55:53.048Z,11.90
2022-11-10T18:00:54.881Z,11.80
2022-11-10T18:05:56.774Z,11.80
2022-11-10T18:11:01.039Z,11.70
2022-11-10T18:16:02.935Z,11.70
2022-11-10T18:21:06.246Z,11.60
2022-11-10T18:26:12.127Z,11.60
2022-11-10T18:31:14.229Z,11.60
2022-11-10T18:36:16.327Z,11.50
2022-11-10T18:41:51.687Z,11.50
2022-11-10T18:46:53.725Z,11.40
2022-11-10T18:51:58.092Z,11.40
2022-11-10T18:57:00.073Z,11.30
2022-11-10T19:02:01.975Z,11.30
2022-11-10T19:07:04.420Z,11.20
2022-11-10T19:12:07.495Z,11.20
2022-11-10T19:17:09.394Z,11.10
2022-11-10T19:22:11.346Z,11.00
2022-11-10T19:27:14.061Z,11.10
2022-11-10T19:32:18.613Z,11.10
2022-11-10T19:37:30.798Z,11.10
2022-11-10T19:42:35.328Z,11.00
2022-11-10T19:47:38.450Z,11.00
2022-11-10T19:52:40.255Z,11.00
2022-11-10T19:57:42.238Z,11.00
2022-11-10T20:02:45.880Z,10.90
2022-11-10T20:08:09.731Z,10.80
2022-11-10T20:13:12.958Z,10.80
2022-11-10T20:18:14.738Z,10.80
2022-11-10T20:23:17.189Z,10.80
2022-11-10T20:28:19.019Z,10.70
2022-11-10T20:33:21.233Z,10.70
2022-11-10T20:38:23.427Z,10.70
2022-11-10T20:43:25.368Z,10.60
2022-11-10T20:48:30.160Z,10.60
2022-11-10T20:53:32.099Z,10.50
2022-11-10T20:58:34.536Z,10.60
2022-11-10T21:03:36.749Z,10.60
2022-11-10T21:08:41.767Z,10.60
2022-11-10T21:13:45.869Z,10.50
2022-11-10T21:18:47.619Z,10.50
2022-11-10T21:23:57.033Z,10.40
2022-11-10T21:28:58.915Z,10.30
2022-11-10T21:34:01.084Z,10.30
2022-11-10T21:39:02.860Z,10.30
2022-11-10T21:44:04.970Z,10.20
2022-11-10T21:49:08.123Z,10.20
2022-11-10T21:54:10.608Z,10.10
2022-11-10T21:59:12.414Z,10.20
2022-11-10T22:04:15.091Z,10.10
2022-11-10T22:09:36.805Z,10.10
2022-11-10T22:14:57.115Z,10.00
2022-11-10T22:19:58.857Z,10.10
2022-11-10T22:25:00.811Z,10.00
2022-11-10T22:30:02.576Z,9.90
2022-11-10T22:35:04.621Z,9.90
2022-11-10T22:40:25.444Z,9.90
2022-11-10T22:45:27.089Z,9.90
2022-11-10T22:50:28.777Z,9.90
2022-11-10T22:55:30.455Z,9.90
2022-11-10T23:00:32.218Z,9.80
2022-11-10T23:05:35.127Z,9.80
2022-11-10T23:10:36.869Z,9.90
2022-11-10T23:15:38.596Z,9.80
2022-11-10T23:20:40.326Z,9.80
2022-11-10T23:25:42.114Z,9.80
2022-11-10T23:30:43.850Z,9.80
2022-11-10T23:35:45.728Z,9.80
2022-11-10T23:40:47.655Z,9.70
2022-11-10T23:51:13.971Z,9.70
2022-11-10T23:56:17.307Z,9.70
